createdAt,value
2023-04-19T00:02:04.657Z,1
2023-04-19T00:14:04.462Z,1
2023-04-19T00:26:04.693Z,1
2023-04-19T00:38:04.618Z,1
2023-04-19T00:50:04.590Z,1
2023-04-19T01:02:04.739Z,1
2023-04-19T01:14:04.796Z,1
2023-04-19T01:26:04.632Z,1
2023-04-19T01:38:04.643Z,1
2023-04-19T01:50:04.712Z,1
2023-04-19T02:02:04.740Z,1
2023-04-19T02:14:04.660Z,1
2023-04-19T02:26:04.610Z,1
2023-04-19T02:38:04.799Z,1
2023-04-19T02:50:04.723Z,1
2023-04-19T03:02:04.664Z,1
2023-04-19T03:14:04.657Z,1
2023-04-19T03:26:04.756Z,1
2023-04-19T03:38:04.746Z,1
2023-04-19T03:50:04.689Z,1
2023-04-19T04:02:04.939Z,1
2023-04-19T04:14:04.804Z,1
2023-04-19T04:26:04.775Z,1
2023-04-19T04:38:11.335Z,5
2023-04-19T04:50:05.052Z,16
2023-04-19T05:02:04.904Z,32
2023-04-19T05:14:04.855Z,50
2023-04-19T05:26:04.798Z,58
2023-04-19T05:38:04.981Z,69
2023-04-19T05:50:04.949Z,81
2023-04-19T06:02:04.991Z,88
2023-04-19T06:14:04.810Z,91
2023-04-19T06:26:05.020Z,92
2023-04-19T06:38:04.929Z,92
2023-04-19T06:50:04.946Z,94
2023-04-19T07:14:05.094Z,97
2023-04-19T07:26:04.984Z,97
2023-04-19T07:38:05.024Z,97
2023-04-19T07:50:04.919Z,97
2023-04-19T08:02:05.319Z,97
2023-04-19T08:14:11.795Z,97
2023-04-19T08:26:05.211Z,97
2023-04-19T08:38:05.180Z,97
2023-04-19T08:50:17.078Z,97
2023-04-19T09:02:05.167Z,97
2023-04-19T09:14:05.111Z,97
2023-04-19T09:26:19.015Z,97
2023-04-19T09:38:06.811Z,97
2023-04-19T09:50:15.220Z,96
2023-04-19T10:02:05.400Z,97
2023-04-19T10:14:05.265Z,97
2023-04-19T10:26:05.226Z,97
2023-04-19T10:38:05.174Z,97
2023-04-19T10:50:05.266Z,96
2023-04-19T11:02:05.896Z,97
2023-04-19T11:14:05.297Z,97
2023-04-19T11:26:05.203Z,97
2023-04-19T11:38:05.220Z,97
2023-04-19T11:50:05.343Z,97
2023-04-19T12:02:05.398Z,97
2023-04-19T12:14:05.291Z,97
2023-04-19T12:26:05.533Z,97
2023-04-19T12:38:05.994Z,97
2023-04-19T12:50:05.386Z,97
2023-04-19T13:02:05.439Z,97
2023-04-19T13:14:05.324Z,97
2023-04-19T13:26:05.275Z,97
2023-04-19T13:38:05.564Z,96
2023-04-19T13:50:05.413Z,96
2023-04-19T14:02:05.489Z,96
2023-04-19T14:14:05.358Z,96
2023-04-19T14:26:05.530Z,96
2023-04-19T14:38:05.552Z,96
2023-04-19T14:50:05.695Z,96
2023-04-19T15:02:05.439Z,96
2023-04-19T15:14:05.399Z,94
2023-04-19T15:26:05.512Z,94
2023-04-19T15:38:05.666Z,93
2023-04-19T15:50:05.438Z,93
2023-04-19T16:02:05.512Z,93
2023-04-19T16:14:05.637Z,93
2023-04-19T16:26:05.590Z,93
2023-04-19T16:38:05.512Z,93
2023-04-19T16:50:05.665Z,93
2023-04-19T17:02:05.727Z,93
2023-04-19T17:14:05.697Z,92
2023-04-19T17:26:05.579Z,92
2023-04-19T17:38:05.669Z,91
2023-04-19T17:50:05.703Z,91
2023-04-19T18:02:06.353Z,91
2023-04-19T18:14:05.685Z,89
2023-04-19T18:26:05.637Z,88
2023-04-19T18:38:05.568Z,87
2023-04-19T18:50:06.352Z,84
2023-04-19T19:02:05.706Z,79
2023-04-19T19:14:05.838Z,69
2023-04-19T19:26:05.606Z,49
2023-04-19T19:38:05.800Z,25
2023-04-19T19:50:46.056Z,7
2023-04-19T20:02:05.778Z,2
2023-04-19T20:14:05.698Z,1
2023-04-19T20:26:05.882Z,1
2023-04-19T20:38:05.771Z,1
2023-04-19T20:50:05.758Z,1
2023-04-19T21:02:05.793Z,1
2023-04-19T21:14:06.156Z,1
2023-04-19T21:26:06.052Z,1
2023-04-19T21:38:05.813Z,1
2023-04-19T21:50:05.763Z,1
2023-04-19T22:02:05.952Z,1
2023-04-19T22:14:05.884Z,1
2023-04-19T22:26:05.843Z,1
2023-04-19T22:38:05.774Z,1
2023-04-19T22:50:05.947Z,1
2023-04-19T23:02:05.971Z,1
2023-04-19T23:14:05.896Z,1
2023-04-19T23:26:05.999Z,1
2023-04-19T23:38:05.994Z,1
2023-04-19T23:50:06.024Z,1
